createdAt,value
2018-08-06T00:00:35.937Z,24.60
2018-08-06T00:03:04.600Z,24.50
2018-08-06T00:05:33.032Z,24.50
2018-08-06T00:08:05.325Z,24.50
2018-08-06T00:10:34.803Z,24.50
2018-08-06T00:13:05.292Z,24.20
2018-08-06T00:15:34.259Z,24.20
2018-08-06T00:18:03.321Z,24.30
2018-08-06T00:20:32.611Z,24.40
2018-08-06T00:23:01.188Z,24.40
2018-08-06T00:25:30.973Z,24.40
2018-08-06T00:27:59.715Z,24.30
2018-08-06T00:30:28.404Z,24.20
2018-08-06T00:32:57.282Z,24.20
2018-08-06T00:35:26.682Z,24.00
2018-08-06T00:37:55.251Z,24.00
2018-08-06T00:40:23.696Z,23.90
2018-08-06T00:42:52.352Z,23.80
2018-08-06T00:45:21.833Z,23.80
2018-08-06T00:50:18.874Z,23.60
2018-08-06T00:52:47.400Z,23.20
2018-08-06T00:55:19.512Z,23.20
2018-08-06T00:57:48.293Z,23.20
2018-08-06T01:00:18.986Z,23.20
2018-08-06T01:02:48.928Z,23.20
2018-08-06T01:05:18.101Z,23.10
2018-08-06T01:07:46.993Z,23.10
2018-08-06T01:10:17.162Z,23.00
2018-08-06T01:12:46.018Z,23.00
2018-08-06T01:15:18.497Z,23.10
2018-08-06T01:17:47.500Z,23.00
2018-08-06T01:20:15.957Z,22.80
2018-08-06T01:22:45.709Z,22.90
2018-08-06T01:25:14.967Z,23.00
2018-08-06T01:27:43.604Z,23.00
2018-08-06T01:30:13.751Z,23.00
2018-08-06T01:32:43.151Z,22.90
2018-08-06T01:35:12.005Z,22.90
2018-08-06T01:37:41.582Z,22.90
2018-08-06T01:40:12.666Z,22.90
2018-08-06T01:42:41.500Z,22.80
2018-08-06T01:45:12.981Z,22.60
2018-08-06T01:47:41.357Z,22.50
2018-08-06T01:50:11.424Z,22.50
2018-08-06T01:52:40.319Z,22.60
2018-08-06T01:57:39.358Z,22.70
2018-08-06T02:00:13.202Z,22.70
2018-08-06T02:02:42.982Z,22.70
2018-08-06T02:07:43.268Z,22.60
2018-08-06T02:10:16.084Z,22.60
2018-08-06T02:12:45.163Z,22.30
2018-08-06T02:15:17.061Z,22.30
2018-08-06T02:17:45.519Z,22.30
2018-08-06T02:20:16.646Z,22.30
2018-08-06T02:22:46.657Z,22.20
2018-08-06T02:25:15.494Z,22.20
2018-08-06T02:27:44.302Z,22.20
2018-08-06T02:30:14.796Z,22.30
2018-08-06T02:32:46.194Z,22.10
2018-08-06T02:35:16.153Z,22.20
2018-08-06T02:37:45.285Z,22.20
2018-08-06T02:40:17.410Z,22.00
2018-08-06T02:42:46.233Z,21.70
2018-08-06T02:45:14.744Z,21.60
2018-08-06T02:47:43.475Z,21.50
2018-08-06T02:50:12.988Z,21.50
2018-08-06T02:52:43.831Z,21.70
2018-08-06T02:55:13.926Z,21.80
2018-08-06T02:57:42.910Z,21.90
2018-08-06T03:00:15.050Z,22.00
2018-08-06T03:02:45.154Z,22.10
2018-08-06T03:05:15.409Z,22.10
2018-08-06T03:07:44.738Z,22.10
2018-08-06T03:10:13.743Z,22.00
2018-08-06T03:12:43.203Z,22.00
2018-08-06T03:15:13.316Z,21.90
2018-08-06T03:17:42.412Z,21.90
2018-08-06T03:20:12.358Z,21.90
2018-08-06T03:22:41.077Z,21.80
2018-08-06T03:27:40.337Z,21.60
2018-08-06T03:30:11.371Z,21.50
2018-08-06T03:32:39.955Z,21.50
2018-08-06T03:35:09.996Z,21.50
2018-08-06T03:37:38.546Z,21.60
2018-08-06T03:40:08.995Z,21.60
2018-08-06T03:42:37.576Z,21.30
2018-08-06T03:45:10.309Z,21.30
2018-08-06T03:47:41.177Z,21.50
2018-08-06T03:50:10.961Z,21.60
2018-08-06T03:52:39.627Z,21.50
2018-08-06T03:55:09.249Z,21.60
2018-08-06T03:57:38.194Z,21.60
2018-08-06T04:00:08.393Z,21.60
2018-08-06T04:02:36.853Z,21.50
2018-08-06T04:05:07.408Z,21.50
2018-08-06T04:07:35.605Z,21.60
2018-08-06T04:10:04.311Z,21.60
2018-08-06T04:12:32.785Z,21.40
2018-08-06T04:15:01.518Z,21.40
2018-08-06T04:17:30.126Z,21.30
2018-08-06T04:19:58.854Z,21.20
2018-08-06T04:22:27.589Z,21.20
2018-08-06T04:24:56.270Z,21.10
2018-08-06T04:27:24.791Z,21.00
2018-08-06T04:29:53.669Z,21.10
2018-08-06T04:34:49.867Z,21.20
2018-08-06T04:37:18.452Z,21.10
2018-08-06T04:39:47.386Z,21.30
2018-08-06T04:42:16.728Z,21.40
2018-08-06T04:44:45.179Z,21.40
2018-08-06T04:47:13.702Z,21.40
2018-08-06T04:49:42.236Z,21.40
2018-08-06T04:52:10.929Z,21.50
2018-08-06T04:54:39.564Z,21.40
2018-08-06T04:57:07.971Z,21.30
2018-08-06T04:59:36.508Z,21.30
2018-08-06T05:02:04.936Z,21.20
2018-08-06T05:04:33.382Z,21.20
2018-08-06T05:07:02.184Z,21.20
2018-08-06T05:09:40.973Z,21.30
2018-08-06T05:14:40.021Z,21.30
2018-08-06T05:17:09.592Z,21.30
2018-08-06T05:22:08.377Z,21.40
2018-08-06T05:24:36.941Z,21.50
2018-08-06T05:27:06.036Z,21.70
2018-08-06T05:32:02.971Z,22.00
2018-08-06T05:34:32.821Z,22.00
2018-08-06T05:37:01.170Z,22.00
2018-08-06T05:41:58.372Z,22.30
2018-08-06T05:44:27.032Z,22.30
2018-08-06T05:46:56.965Z,22.30
2018-08-06T05:49:26.366Z,22.30
2018-08-06T05:51:54.930Z,22.40
2018-08-06T05:54:24.545Z,22.40
2018-08-06T05:56:54.025Z,22.40
2018-08-06T05:59:26.129Z,22.50
2018-08-06T06:01:56.160Z,22.60
2018-08-06T06:04:25.186Z,22.60
2018-08-06T06:06:54.884Z,22.70
2018-08-06T06:09:24.824Z,22.80
2018-08-06T06:11:54.512Z,22.90
2018-08-06T06:14:25.788Z,23.00
2018-08-06T06:16:57.164Z,23.00
2018-08-06T06:19:25.829Z,23.10
2018-08-06T06:24:31.720Z,23.30
2018-08-06T06:27:00.800Z,23.30
2018-08-06T06:29:29.605Z,23.40
2018-08-06T06:32:01.103Z,23.60
2018-08-06T06:34:29.931Z,23.70
2018-08-06T06:36:58.711Z,23.90
2018-08-06T06:39:27.610Z,24.10
2018-08-06T06:41:56.463Z,24.20
2018-08-06T06:44:24.943Z,24.20
2018-08-06T06:46:55.788Z,24.20
2018-08-06T06:49:25.837Z,24.70
2018-08-06T06:51:54.279Z,24.90
2018-08-06T06:56:51.445Z,25.30
2018-08-06T06:59:21.433Z,25.30
2018-08-06T07:01:50.043Z,25.50
2018-08-06T07:04:18.699Z,25.70
2018-08-06T07:06:47.266Z,26.00
2018-08-06T07:09:16.096Z,26.10
2018-08-06T07:11:44.929Z,26.40
2018-08-06T07:14:15.418Z,26.70
2018-08-06T07:16:44.116Z,26.80
2018-08-06T07:19:14.027Z,27.00
2018-08-06T07:21:43.852Z,27.10
2018-08-06T07:24:12.564Z,27.20
2018-08-06T07:26:41.284Z,27.20
2018-08-06T07:29:10.641Z,27.20
2018-08-06T07:31:39.682Z,27.60
2018-08-06T07:34:09.136Z,27.70
2018-08-06T07:36:39.030Z,27.70
2018-08-06T07:39:09.833Z,27.90
2018-08-06T07:41:38.616Z,28.10
2018-08-06T07:44:07.299Z,28.10
2018-08-06T07:46:37.244Z,28.20
2018-08-06T09:07:36.575Z,30.70
2018-08-06T09:10:06.176Z,31.00
2018-08-06T09:15:02.932Z,31.50
2018-08-06T09:17:31.550Z,31.50
2018-08-06T09:20:00.070Z,31.80
2018-08-06T09:22:28.663Z,31.80
2018-08-06T09:24:57.112Z,32.10
2018-08-06T09:27:25.785Z,32.20
2018-08-06T09:29:54.507Z,32.40
2018-08-06T09:32:22.881Z,32.40
2018-08-06T09:34:51.454Z,32.50
2018-08-06T09:37:20.261Z,32.50
2018-08-06T09:39:48.794Z,32.70
2018-08-06T09:42:17.235Z,32.70
2018-08-06T09:44:45.668Z,33.00
2018-08-06T09:47:14.168Z,32.80
2018-08-06T09:49:42.669Z,32.80
2018-08-06T09:52:11.074Z,32.80
2018-08-06T09:54:39.717Z,32.90
2018-08-06T09:57:08.295Z,32.90
2018-08-06T09:59:37.387Z,33.00
2018-08-06T10:02:06.112Z,33.20
2018-08-06T10:04:34.787Z,33.30
2018-08-06T10:07:03.302Z,33.20
2018-08-06T10:09:32.366Z,33.30
2018-08-06T10:12:00.809Z,33.40
2018-08-06T10:14:29.280Z,33.40
2018-08-06T10:16:57.854Z,33.50
2018-08-06T10:19:26.475Z,33.50
2018-08-06T10:21:54.946Z,33.50
2018-08-06T10:24:23.518Z,33.50
2018-08-06T10:26:51.822Z,33.60
2018-08-06T10:29:20.334Z,33.60
2018-08-06T10:31:48.994Z,33.70
2018-08-06T10:34:17.838Z,33.70
2018-08-06T10:36:46.204Z,33.70
2018-08-06T10:39:14.677Z,33.80
2018-08-06T10:41:43.178Z,33.70
2018-08-06T10:44:11.754Z,33.80
2018-08-06T10:46:40.986Z,33.80
2018-08-06T10:49:09.508Z,33.70
2018-08-06T10:51:37.714Z,33.70
2018-08-06T10:54:06.105Z,33.80
2018-08-06T10:56:34.552Z,33.70
2018-08-06T10:59:02.968Z,33.60
2018-08-06T11:01:31.854Z,33.40
2018-08-06T11:04:01.902Z,33.50
2018-08-06T11:06:33.442Z,33.50
2018-08-06T11:09:02.053Z,33.60
2018-08-06T11:11:30.745Z,33.70
2018-08-06T11:13:59.316Z,33.50
2018-08-06T11:18:57.146Z,33.20
2018-08-06T11:21:25.953Z,33.20
2018-08-06T11:23:54.548Z,33.30
2018-08-06T11:26:23.233Z,33.40
2018-08-06T11:28:51.757Z,33.50
2018-08-06T11:31:20.360Z,33.50
2018-08-06T11:33:49.049Z,33.40
2018-08-06T11:36:17.349Z,33.20
2018-08-06T11:38:45.938Z,33.20
2018-08-06T11:41:14.473Z,33.30
2018-08-06T11:43:42.968Z,33.10
2018-08-06T11:46:11.531Z,33.00
2018-08-06T11:48:40.301Z,33.00
2018-08-06T11:51:08.816Z,33.30
2018-08-06T11:53:37.238Z,33.20
2018-08-06T11:56:05.781Z,33.20
2018-08-06T11:58:34.248Z,33.30
2018-08-06T12:01:02.741Z,33.30
2018-08-06T12:03:31.443Z,33.30
2018-08-06T12:06:00.038Z,33.30
2018-08-06T12:08:28.550Z,33.30
2018-08-06T12:10:57.049Z,33.30
2018-08-06T12:13:25.439Z,33.30
2018-08-06T12:15:53.828Z,33.40
2018-08-06T12:18:22.196Z,33.30
2018-08-06T12:20:50.549Z,33.30
2018-08-06T12:23:19.049Z,33.20
2018-08-06T12:25:47.432Z,33.10
2018-08-06T12:28:15.847Z,33.20
2018-08-06T12:30:44.209Z,33.40
2018-08-06T12:33:12.589Z,33.50
2018-08-06T12:35:40.954Z,33.50
2018-08-06T12:38:09.475Z,33.50
2018-08-06T12:40:37.932Z,33.70
2018-08-06T12:43:06.754Z,33.60
2018-08-06T12:45:35.505Z,33.50
2018-08-06T12:48:03.895Z,33.50
2018-08-06T12:53:00.579Z,33.40
2018-08-06T12:55:29.027Z,33.40
2018-08-06T12:57:57.488Z,33.50
2018-08-06T13:00:27.343Z,33.40
2018-08-06T13:02:56.060Z,33.30
2018-08-06T13:05:25.358Z,33.30
2018-08-06T13:07:53.866Z,33.10
2018-08-06T13:10:22.133Z,33.00
2018-08-06T13:12:50.906Z,33.10
2018-08-06T13:15:20.954Z,32.50
2018-08-06T13:17:49.254Z,33.30
2018-08-06T13:20:17.715Z,33.20
2018-08-06T13:22:46.452Z,33.20
2018-08-06T13:25:14.759Z,33.10
2018-08-06T13:27:43.435Z,33.20
2018-08-06T13:30:13.932Z,33.20
2018-08-06T13:32:43.223Z,33.10
2018-08-06T13:35:12.547Z,33.10
2018-08-06T13:37:41.449Z,33.00
2018-08-06T13:40:10.690Z,33.00
2018-08-06T13:42:39.231Z,32.80
2018-08-06T13:45:09.817Z,32.70
2018-08-06T13:47:38.412Z,32.80
2018-08-06T13:50:07.587Z,32.80
2018-08-06T13:52:36.817Z,32.80
2018-08-06T13:55:06.310Z,32.90
2018-08-06T13:57:34.994Z,32.90
2018-08-06T14:00:05.072Z,33.00
2018-08-06T14:02:33.566Z,33.00
2018-08-06T14:05:02.364Z,33.10
2018-08-06T14:07:31.074Z,33.00
2018-08-06T14:09:59.723Z,32.90
2018-08-06T14:12:28.217Z,33.00
2018-08-06T14:14:56.878Z,32.70
2018-08-06T14:17:25.307Z,32.40
2018-08-06T14:19:53.735Z,32.50
2018-08-06T14:22:22.473Z,32.60
2018-08-06T14:24:51.198Z,32.60
2018-08-06T14:27:20.032Z,32.80
2018-08-06T14:29:48.720Z,32.90
2018-08-06T14:32:17.272Z,32.90
2018-08-06T14:34:46.480Z,32.70
2018-08-06T14:37:15.308Z,32.70
2018-08-06T14:39:43.771Z,32.70
2018-08-06T14:42:12.315Z,32.90
2018-08-06T14:44:40.928Z,32.90
2018-08-06T14:47:09.357Z,33.00
2018-08-06T14:49:37.874Z,33.00
2018-08-06T14:52:06.466Z,33.10
2018-08-06T14:54:35.157Z,33.20
2018-08-06T14:57:03.747Z,33.20
2018-08-06T14:59:32.283Z,33.00
2018-08-06T15:02:00.759Z,33.00
2018-08-06T15:04:31.305Z,33.00
2018-08-06T15:06:59.705Z,33.00
2018-08-06T15:09:28.274Z,32.90
2018-08-06T15:11:56.784Z,32.90
2018-08-06T15:14:25.594Z,32.90
2018-08-06T15:16:54.158Z,32.90
2018-08-06T15:19:22.945Z,32.90
2018-08-06T15:21:51.639Z,33.00
2018-08-06T15:24:20.118Z,32.90
2018-08-06T15:26:48.410Z,32.70
2018-08-06T15:29:16.839Z,32.70
2018-08-06T15:31:45.190Z,32.60
2018-08-06T15:34:13.767Z,32.60
2018-08-06T15:36:42.243Z,32.50
2018-08-06T15:39:13.422Z,32.50
2018-08-06T15:41:41.934Z,32.60
2018-08-06T15:44:10.464Z,32.60
2018-08-06T15:46:38.799Z,32.70
2018-08-06T15:49:07.530Z,32.50
2018-08-06T15:51:36.220Z,32.60
2018-08-06T15:54:04.565Z,32.60
2018-08-06T15:56:33.028Z,32.60
2018-08-06T15:59:01.496Z,32.50
2018-08-06T16:01:30.095Z,32.40
2018-08-06T16:03:58.509Z,32.40
2018-08-06T16:06:27.195Z,32.30
2018-08-06T16:08:55.637Z,32.30
2018-08-06T16:11:24.204Z,32.30
2018-08-06T16:13:52.800Z,32.30
2018-08-06T16:16:21.241Z,32.30
2018-08-06T16:18:49.645Z,32.30
2018-08-06T16:21:18.222Z,32.10
2018-08-06T16:23:46.769Z,32.10
2018-08-06T16:26:15.309Z,32.10
2018-08-06T16:28:43.754Z,32.10
2018-08-06T16:31:12.208Z,32.10
2018-08-06T16:33:41.051Z,32.10
2018-08-06T16:36:09.653Z,32.10
2018-08-06T16:38:38.246Z,32.00
2018-08-06T16:41:06.658Z,32.10
2018-08-06T16:43:35.147Z,32.00
2018-08-06T16:46:03.746Z,32.10
2018-08-06T16:48:32.285Z,32.10
2018-08-06T16:51:00.943Z,32.00
2018-08-06T16:53:29.413Z,32.00
2018-08-06T16:55:58.015Z,32.00
2018-08-06T16:58:26.557Z,32.00
2018-08-06T17:00:55.173Z,31.90
2018-08-06T17:03:23.693Z,31.70
2018-08-06T17:08:20.468Z,31.70
2018-08-06T17:10:48.961Z,31.70
2018-08-06T17:13:17.459Z,31.60
2018-08-06T17:15:45.809Z,31.60
2018-08-06T17:18:14.304Z,31.60
2018-08-06T17:20:42.687Z,31.60
2018-08-06T17:23:11.088Z,31.70
2018-08-06T17:25:39.553Z,31.60
2018-08-06T17:28:07.947Z,31.60
2018-08-06T17:30:36.369Z,31.60
2018-08-06T17:33:04.899Z,31.60
2018-08-06T17:35:33.285Z,31.50
2018-08-06T17:38:01.664Z,31.40
2018-08-06T17:40:29.857Z,31.40
2018-08-06T17:42:58.037Z,31.40
2018-08-06T17:45:26.496Z,31.40
2018-08-06T17:47:54.877Z,31.40
2018-08-06T17:50:23.770Z,31.40
2018-08-06T17:52:52.991Z,31.30
2018-08-06T17:55:22.203Z,31.30
2018-08-06T17:57:50.633Z,31.10
2018-08-06T18:00:19.428Z,31.10
2018-08-06T18:02:47.932Z,31.00
2018-08-06T18:05:16.793Z,30.90
2018-08-06T18:11:42.566Z,30.70
2018-08-06T18:14:10.981Z,30.30
2018-08-06T18:16:39.311Z,30.30
2018-08-06T18:19:07.570Z,30.30
2018-08-06T18:21:35.754Z,30.10
2018-08-06T18:24:04.387Z,29.90
2018-08-06T18:26:33.033Z,29.80
2018-08-06T18:29:01.454Z,29.90
2018-08-06T18:31:29.993Z,29.80
2018-08-06T18:33:58.457Z,29.80
2018-08-06T18:36:26.854Z,29.80
2018-08-06T18:38:55.294Z,29.60
2018-08-06T18:43:52.089Z,29.30
2018-08-06T18:48:48.755Z,29.30
2018-08-06T18:51:17.209Z,29.40
2018-08-06T18:53:45.755Z,29.40
2018-08-06T18:56:14.187Z,29.30
2018-08-06T18:58:43.620Z,29.20
2018-08-06T19:01:12.360Z,29.20
2018-08-06T19:08:37.112Z,29.10
2018-08-06T19:11:10.520Z,29.10
2018-08-06T19:13:44.291Z,29.10
2018-08-06T19:16:12.852Z,29.00
2018-08-06T19:18:46.726Z,29.00
2018-08-06T19:21:15.205Z,29.00
2018-08-06T19:23:44.770Z,29.00
2018-08-06T19:26:13.188Z,28.90
2018-08-06T19:28:41.732Z,28.80
2018-08-06T19:31:15.405Z,28.80
2018-08-06T19:33:43.969Z,28.80
2018-08-06T19:37:41.922Z,28.50
2018-08-06T19:40:11.372Z,28.40
2018-08-06T19:42:45.118Z,28.40
2018-08-06T19:45:13.948Z,28.40
2018-08-06T19:47:43.012Z,28.40
2018-08-06T19:50:16.828Z,28.30
2018-08-06T19:52:45.260Z,28.30
2018-08-06T19:55:19.012Z,28.10
2018-08-06T19:57:47.606Z,28.10
2018-08-06T20:00:16.208Z,28.00
2018-08-06T20:02:44.921Z,27.90
2018-08-06T20:05:13.535Z,28.00
2018-08-06T20:07:41.955Z,28.10
2018-08-06T20:10:12.198Z,28.10
2018-08-06T20:12:40.500Z,28.00
2018-08-06T20:15:13.725Z,28.10
2018-08-06T20:17:42.329Z,28.10
2018-08-06T20:20:11.572Z,28.20
2018-08-06T20:22:40.191Z,28.40
2018-08-06T20:25:11.459Z,28.00
2018-08-06T20:27:40.086Z,27.90
2018-08-06T20:30:09.842Z,27.90
2018-08-06T20:32:38.592Z,27.90
2018-08-06T20:35:11.730Z,27.90
2018-08-06T20:40:09.403Z,28.00
2018-08-06T20:42:39.106Z,28.00
2018-08-06T20:45:11.865Z,27.90
2018-08-06T20:47:40.974Z,28.00
2018-08-06T20:50:11.628Z,28.00
2018-08-06T20:52:39.958Z,28.00
2018-08-06T20:55:09.439Z,28.00
2018-08-06T20:57:38.254Z,27.90
2018-08-06T21:00:07.470Z,27.80
2018-08-06T21:02:36.144Z,27.80
2018-08-06T21:05:04.424Z,27.70
2018-08-06T21:07:32.778Z,27.80
2018-08-06T21:10:01.288Z,27.80
2018-08-06T21:12:29.844Z,27.70
2018-08-06T21:14:58.333Z,27.70
2018-08-06T21:17:26.835Z,27.60
2018-08-06T21:19:55.197Z,27.50
2018-08-06T21:22:23.751Z,27.40
2018-08-06T21:24:52.243Z,27.40
2018-08-06T21:27:20.756Z,27.40
2018-08-06T21:29:49.181Z,27.30
2018-08-06T21:32:17.729Z,27.30
2018-08-06T21:34:46.064Z,27.10
2018-08-06T21:37:14.368Z,27.20
2018-08-06T21:42:11.065Z,27.20
2018-08-06T21:44:39.651Z,27.20
2018-08-06T21:47:08.423Z,27.20
2018-08-06T21:49:36.918Z,27.30
2018-08-06T21:52:05.539Z,27.30
2018-08-06T21:54:34.368Z,27.20
2018-08-06T21:57:02.818Z,27.00
2018-08-06T21:59:31.435Z,27.20
2018-08-06T22:02:00.122Z,27.10
2018-08-06T22:04:28.779Z,27.10
2018-08-06T22:06:57.219Z,27.10
2018-08-06T22:09:25.681Z,27.10
2018-08-06T22:11:54.155Z,27.10
2018-08-06T22:14:22.522Z,27.00
2018-08-06T22:16:58.871Z,27.00
2018-08-06T22:19:27.390Z,27.00
2018-08-06T22:21:57.798Z,26.80
2018-08-06T22:24:32.903Z,26.70
2018-08-06T22:27:01.592Z,26.70
2018-08-06T22:29:30.263Z,26.70
2018-08-06T22:31:58.964Z,26.70
2018-08-06T22:34:27.767Z,26.60
2018-08-06T22:36:56.312Z,26.60
2018-08-06T22:39:24.975Z,26.50
2018-08-06T22:44:22.330Z,26.30
2018-08-06T22:49:19.008Z,26.00
2018-08-06T22:51:47.490Z,26.10
2018-08-06T22:54:16.100Z,26.00
2018-08-06T22:56:44.883Z,26.00
2018-08-06T22:59:13.318Z,25.80
2018-08-06T23:01:41.801Z,25.80
2018-08-06T23:04:11.449Z,25.80
2018-08-06T23:06:39.769Z,25.80
2018-08-06T23:09:10.738Z,25.70
2018-08-06T23:11:40.140Z,25.60
2018-08-06T23:14:08.999Z,25.50
2018-08-06T23:16:37.673Z,25.50
2018-08-06T23:19:06.377Z,25.50
2018-08-06T23:21:34.982Z,25.50
2018-08-06T23:24:07.588Z,25.60
2018-08-06T23:26:36.203Z,25.60
2018-08-06T23:29:04.744Z,25.60
2018-08-06T23:31:33.425Z,25.60
2018-08-06T23:34:02.178Z,25.60
2018-08-06T23:36:30.668Z,25.50
2018-08-06T23:38:59.140Z,25.30
2018-08-06T23:41:27.710Z,25.30
2018-08-06T23:43:56.210Z,25.20
2018-08-06T23:46:24.784Z,25.20
2018-08-06T23:51:21.536Z,25.10
2018-08-06T23:53:50.081Z,25.20
2018-08-06T23:56:18.550Z,25.20
2018-08-06T23:58:46.884Z,25.20
